Terminal Aerodrome Forecast
Issued by NWS

Home | Current Version | Previous Version | Text Only | Print | Product List | Glossary On
Versions: 1 2 3 4 5 6 7 8 9 10 11 12
000
FTUS45 KABQ 201740
TAFLVS
TAF
KLVS 201740Z 2018/2118 23011G19KT P6SM SCT200
     FM202000 22018G28KT P6SM SCT200
      TEMPO 2104/2108 22025G35KT SCT120
     FM210800 23018G28KT P6SM VCSH BKN120
     FM211600 26025G35KT P6SM BKN100=

USA.gov is the U.S. government's official web portal to all federal, state and local government web resources and services.